ADDS METAR Data INFO
IDs: Format: Raw Decoded Include TAF

Data at: 0157 UTC 17 Oct 2017

KACY 170154Z 34006KT 10SM CLR 08/04 A3018 RMK AO2 SLP220 T00780044
KACY 170054Z 32003KT 10SM CLR 09/05 A3016 RMK AO2 SLP212 T00890050
KACY 162354Z 34006KT 10SM CLR 11/06 A3014 RMK AO2 SLP205 T01060056 10150 20094 53022
KACY 162254Z 32004KT 10SM CLR 10/07 A3012 RMK AO2 SLP197 T01000072
KACY 162154Z 33009KT 10SM CLR 13/07 A3009 RMK AO2 SLP189 T01280067
KACY 162054Z 33013G19KT 10SM CLR 14/06 A3007 RMK AO2 SLP182 T01390061 53013
KACY 161954Z 32014G21KT 10SM CLR 14/06 A3005 RMK AO2 SLP177 T01440061
KACY 161854Z 33010KT 10SM CLR 14/07 A3004 RMK AO2 SLP171 T01390072
KACY 161754Z 34016G24KT 10SM FEW034 14/07 A3003 RMK AO2 SLP169 60000 T01390067 10156 20139 53004
KACY 161654Z 34011KT 10SM CLR 14/09 A3003 RMK AO2 SLP169 T01390094
KACY 161554Z 36011KT 10SM FEW036 SCT070 SCT120 14/11 A3000 RMK AO2 RAB05E38 SLP160 P0000 T01440111
KACY 161454Z 34010KT 10SM FEW036 SCT050 BKN075 14/12 A3002 RMK AO2 RAB00E23 SLP165 P0000 60000 T01440117 51025
KACY 161354Z 35011G21KT 10SM BKN110 16/13 A3000 RMK AO2 RAB11E20 SLP157 P0000 T01560128
KACY 161254Z 31008KT 10SM OVC090 16/15 A2997 RMK AO2 SLP149 T01560150
KACY 161154Z 28004KT 10SM OVC090 16/15 A2994 RMK AO2 RAE38 SLP139 P0006 60015 70015 T01560150 10222 20150 50022
KACY 161054Z 29007KT 4SM RA BR BKN050 OVC065 15/15 A2995 RMK AO2 RAB0957 SLP142 P0009 T01500150
KACY 160954Z 30017G25KT 10SM BKN038 OVC055 19/12 A2992 RMK AO2 SLP132 T01890122
KACY 160854Z 32011KT 10SM BKN030 OVC042 19/14 A2988 RMK AO2 PK WND 32026/0801 SLP117 T01940139 53010
KACY 160754Z 33015G25KT 10SM BKN019 20/16 A2985 RMK AO2 PK WND 32030/0742 SLP109 T02000161
KACY 160714Z 27009KT 10SM BKN023 22/19 A2985 RMK AO2 T02170194
KACY 160654Z 26010KT 10SM BKN120 22/19 A2985 RMK AO2 SLP106 T02220189
KACY 160554Z 24008G18KT 10SM OVC095 22/19 A2985 RMK AO2 SLP107 T02220194 10222 20200 55003
KACY 160454Z 23010KT 10SM FEW090 22/19 A2984 RMK AO2 SLP105 T02170194 402330189
KACY 160354Z 22008KT 10SM BKN100 21/19 A2985 RMK AO2 SLP107 T02110194
KACY 160254Z 20011KT 10SM CLR 21/19 A2986 RMK AO2 SLP111 T02060194 58011
KACY 160154Z 20010KT 10SM FEW007 21/20 A2987 RMK AO2 SLP115 T02060200
KACY 160119Z 19009KT 10SM FEW007 21/19 A2988 RMK AO2 T02060194
KACY 160054Z 19008KT 10SM CLR 20/19 A2988 RMK AO2 SLP119 T02000194
KACY 152354Z 19006KT 9SM CLR 20/19 A2989 RMK AO2 SLP121 T02000194 10228 20200 58013
KACY 152254Z 18005KT 10SM FEW025 21/18 A2991 RMK AO2 SLP126 T02060183
KACY 152154Z 20008KT 10SM OVC023 22/18 A2992 RMK AO2 SLP131 T02170178
KACY 152054Z 23008KT 10SM BKN024 22/18 A2993 RMK AO2 SLP134 T02220178 56017
KACY 151954Z 22009G21KT 10SM BKN024 23/18 A2994 RMK AO2 SLP138 T02280178
KACY 151854Z 24010KT 10SM BKN022 OVC027 22/18 A2996 RMK AO2 SLP145 T02220178
KACY 151754Z 22012KT 10SM BKN021 BKN025 22/18 A2998 RMK AO2 SLP151 T02220183 10233 20189 58030
KACY 151654Z 23010G19KT 10SM SCT019 OVC024 22/18 A3002 RMK AO2 SLP164 T02220183
KACY 151609Z 23011G17KT 10SM SCT013 OVC022 22/18 A3004 RMK AO2 T02170183
KACY 151554Z 24009KT 10SM BKN013 OVC020 22/19 A3005 RMK AO2 SLP174 T02170189
KACY 151454Z 22008KT 10SM FEW009 OVC015 21/19 A3007 RMK AO2 SLP181 T02110194 56008
KACY 151449Z 24008KT 10SM OVC015 21/19 A3007 RMK AO2
KACY 151442Z 22008KT 10SM BKN009 OVC015 21/19 A3007 RMK AO2 CIG 005V012 T02060194
KACY 151436Z 22010KT 10SM FEW007 OVC015 21/20 A3007 RMK AO2 T02060200